KAHN/AHN METAR and TAF weather

Enter ICAO airport designator
Station Type Date Time Source
KAHN METAR 2019/12/14 10:51 UTC NOAA

KAHN 141051Z AUTO 26008KT 10SM BKN006 OVC011 08/07 A2965 RMK AO2 CIG 005V009 SLP043 T00830072


Station Type Date Time Source
KAHN Decoded METAR 2019/12/14 10:51 UTC NOAA

ATHENS BEN EPPS AIRPORT, GA, United States (KAHN) 33-57N 083-20W 244M
Dec 14, 2019 - 05:51 AM EST / 2019.12.14 1051 UTC
Wind: from the W (260 degrees) at 9 MPH (8 KT):0
Visibility: 10 mile(s):0
Sky conditions: overcast
Temperature: 46.9 F (8.3 C)
Dew Point: 45.0 F (7.2 C)
Relative Humidity: 92%
Pressure (altimeter): 29.65 in. Hg (1004 hPa)
ob: KAHN 141051Z AUTO 26008KT 10SM BKN006 OVC011 08/07 A2965 RMK AO2 CIG 005V009 SLP043 T00830072
cycle: 11

Station Type Date Time Source
KAHN TAF 2019/12/14 06:45 UTC NOAA

TAF KAHN 140542Z 1406/1506 08005KT 2SM -SHRA BR OVC004
FM140900 29010KT P6SM VCSH OVC005
FM141300 29012KT P6SM BKN010
FM141700 29014G20KT P6SM BKN040
FM141900 28011G19KT P6SM BKN080
FM150500 27005KT P6SM SCT030

Example: see airport list